Pagrindinis puslapis
METAR-TAF:

METAR-TAF

Oro uostai :

Salala, Omanas

platuma: 17-02N, ilguma: 054-05E, Aukštis: 20 m

Dabartinis oras

Ataskaita buvo paskelbta 21 minutes, ne 00:50 UTC
Vėjas 4 kt iš Pietų
Temperatūra 28°C
Drėgmė 84%
Slėgis 1003 hPa
Matomumas 10 km arba daugiau
Su prošvaistėmis ne aukštis 2000 ft

METAR: OOSA 170050Z 18004KT 9999 BKN020 28/25 Q1003 NOSIG

Laikas: 05:11 (01:11 UTC)

Prognozė

Ataskaita buvo paskelbta 7 valandos ir 31 minutes, ne 17:40 UTC
Prognozė galioja nuo 16 metu 18 UTC su 18 metu 00 UTC
Vėjas 3 kt nuo kintamojo kryptimis
Matomumas: 7000 m
Išsisklaidę debesys ne aukštis 2500 ft
Tapsmas
nuo 17 metu 06 UTC su 17 metu 08 UTC
Vėjas 10 kt iš Pietų
Tapsmas
nuo 17 metu 15 UTC su 17 metu 17 UTC
Vėjas 3 kt nuo kintamojo kryptimis

TAF: OOSA 161740Z 1618/1800 VRB03KT 7000 SCT025 BECMG 1706/1708 19010KT BECMG 1715/1717 VRB03KT

Orai ataskaitas ir orų prognozės (METAR, TAF).

turimą stotys yra geltonos ir raudonos taškus žemėlapyje.

Perkelti pele per norėdami pamatyti stoties vardą.

Tada spustelėkite, norėdami matyti oro stebėjimo ir prognozės.

Norėdami pakeisti žemėlapį: spustelėkite ant žalios mygtukų su juodo kryžiaus žemyn,; žalią mygtuką su brūkšneliu, jei norite nutolinti; arba žalių rodyklių gretimoms žemėlapius.


METAR-TAF: